createdAt,value
2023-07-05T00:01:05.862Z,100832.35
2023-07-05T00:03:45.490Z,100835.41
2023-07-05T00:06:13.662Z,100840.23
2023-07-05T00:08:41.824Z,100842.82
2023-07-05T00:11:12.291Z,100841.06
2023-07-05T00:13:41.405Z,100841.10
2023-07-05T00:16:12.234Z,100838.60
2023-07-05T00:18:40.913Z,100840.13
2023-07-05T00:21:10.976Z,100844.10
2023-07-05T00:23:40.963Z,100844.41
2023-07-05T00:26:09.162Z,100845.31
2023-07-05T00:28:37.342Z,100844.10
2023-07-05T00:31:06.852Z,100839.27
2023-07-05T00:33:35.369Z,100840.56
2023-07-05T00:36:03.763Z,100838.55
2023-07-05T00:38:32.043Z,100835.64
2023-07-05T00:41:00.486Z,100834.45
2023-07-05T00:43:29.624Z,100835.35
2023-07-05T00:45:59.421Z,100838.59
2023-07-05T00:48:45.497Z,100841.52
2023-07-05T00:51:25.504Z,100841.70
2023-07-05T00:53:58.425Z,100845.07
2023-07-05T00:56:35.467Z,100846.10
2023-07-05T00:59:06.731Z,100844.65
2023-07-05T01:01:34.978Z,100843.30
2023-07-05T01:04:05.630Z,100844.02
2023-07-05T01:06:33.805Z,100850.39
2023-07-05T01:09:02.525Z,100853.80
2023-07-05T01:11:33.429Z,100856.84
2023-07-05T01:14:34.905Z,100858.08
2023-07-05T01:17:14.652Z,100860.86
2023-07-05T01:20:11.043Z,100864.00
2023-07-05T01:23:14.279Z,100860.81
2023-07-05T01:26:00.852Z,100857.89
2023-07-05T01:28:55.403Z,100860.95
2023-07-05T01:32:01.530Z,100863.55
2023-07-05T01:34:47.857Z,100861.11
2023-07-05T01:37:39.988Z,100862.16
2023-07-05T01:40:21.594Z,100858.92
2023-07-05T01:42:57.192Z,100857.05
2023-07-05T01:45:38.552Z,100856.16
2023-07-05T01:48:32.508Z,100860.23
2023-07-05T01:51:09.403Z,100855.55
2023-07-05T01:54:00.327Z,100851.89
2023-07-05T01:56:44.682Z,100852.10
2023-07-05T01:59:15.231Z,100852.73
2023-07-05T02:01:45.297Z,100854.59
2023-07-05T02:04:14.992Z,100850.42
2023-07-05T02:06:44.944Z,100849.04
2023-07-05T02:09:15.382Z,100850.15
2023-07-05T02:11:43.987Z,100849.20
2023-07-05T02:14:13.112Z,100852.27
2023-07-05T02:16:41.282Z,100853.95
2023-07-05T02:19:09.517Z,100854.42
2023-07-05T02:21:37.609Z,100853.91
2023-07-05T02:24:06.019Z,100854.41
2023-07-05T02:26:35.211Z,100856.02
2023-07-05T02:29:03.443Z,100851.48
2023-07-05T02:31:31.621Z,100855.43
2023-07-05T02:33:59.825Z,100854.30
2023-07-05T02:36:27.922Z,100856.29
2023-07-05T02:38:56.040Z,100854.76
2023-07-05T02:41:24.122Z,100855.64
2023-07-05T02:43:52.925Z,100859.44
2023-07-05T02:46:21.292Z,100852.27
2023-07-05T02:48:49.369Z,100855.10
2023-07-05T02:51:17.484Z,100855.64
2023-07-05T02:53:45.573Z,100857.77
2023-07-05T02:56:14.806Z,100857.11
2023-07-05T02:58:42.874Z,100857.14
2023-07-05T03:01:11.398Z,100860.34
2023-07-05T03:03:39.916Z,100861.11
2023-07-05T03:06:07.996Z,100860.96
2023-07-05T03:08:36.136Z,100861.01
2023-07-05T03:11:04.311Z,100860.88
2023-07-05T03:13:34.729Z,100861.91
2023-07-05T03:16:03.992Z,100859.80
2023-07-05T03:18:33.492Z,100859.99
2023-07-05T03:21:01.635Z,100860.31
2023-07-05T03:23:29.867Z,100862.77
2023-07-05T03:26:04.005Z,100857.20
2023-07-05T03:28:33.551Z,100860.10
2023-07-05T03:31:02.382Z,100859.77
2023-07-05T03:33:32.351Z,100859.41
2023-07-05T03:36:03.705Z,100861.50
2023-07-05T03:38:34.033Z,100856.63
2023-07-05T03:41:12.554Z,100860.10
2023-07-05T03:43:42.145Z,100856.21
2023-07-05T03:46:12.665Z,100850.02
2023-07-05T03:48:43.694Z,100848.45
2023-07-05T03:51:14.398Z,100847.62
2023-07-05T03:53:42.887Z,100842.86
2023-07-05T03:56:12.199Z,100846.45
2023-07-05T03:58:40.322Z,100843.91
2023-07-05T04:01:21.050Z,100843.14
2023-07-05T04:03:52.051Z,100847.59
2023-07-05T04:06:21.531Z,100849.53
2023-07-05T04:08:49.676Z,100848.70
2023-07-05T04:11:18.700Z,100851.27
2023-07-05T04:13:48.285Z,100852.88
2023-07-05T04:16:20.186Z,100857.59
2023-07-05T04:18:54.695Z,100856.16
2023-07-05T04:21:24.332Z,100859.05
2023-07-05T04:23:52.766Z,100859.15
2023-07-05T04:26:23.529Z,100864.02
2023-07-05T04:28:51.872Z,100867.84
2023-07-05T04:31:25.590Z,100869.21
2023-07-05T04:33:54.501Z,100867.77
2023-07-05T04:36:28.064Z,100865.85
2023-07-05T04:38:58.593Z,100865.82
2023-07-05T04:41:27.764Z,100863.17
2023-07-05T04:43:56.120Z,100862.11
2023-07-05T04:46:25.330Z,100858.91
2023-07-05T04:48:53.810Z,100854.26
2023-07-05T04:51:22.013Z,100853.28
2023-07-05T04:53:50.240Z,100848.67
2023-07-05T04:56:18.370Z,100848.40
2023-07-05T04:58:49.797Z,100846.67
2023-07-05T05:01:19.892Z,100847.38
2023-07-05T05:03:48.547Z,100847.02
2023-07-05T05:06:16.784Z,100850.52
2023-07-05T05:08:44.886Z,100844.36
2023-07-05T05:11:13.010Z,100839.27
2023-07-05T05:13:41.148Z,100838.04
2023-07-05T05:16:09.239Z,100837.20
2023-07-05T05:18:41.498Z,100839.44
2023-07-05T05:21:09.485Z,100838.70
2023-07-05T05:23:37.874Z,100842.04
2023-07-05T05:26:06.221Z,100847.23
2023-07-05T05:28:34.371Z,100843.37
2023-07-05T05:31:08.684Z,100841.95
2023-07-05T05:33:38.012Z,100841.88
2023-07-05T05:36:06.818Z,100844.95
2023-07-05T05:38:36.733Z,100847.57
2023-07-05T05:41:12.166Z,100850.80
2023-07-05T05:43:40.682Z,100850.70
2023-07-05T05:46:09.930Z,100857.83
2023-07-05T05:48:39.470Z,100858.13
2023-07-05T05:51:07.705Z,100856.83
2023-07-05T05:53:35.923Z,100859.95
2023-07-05T05:56:04.413Z,100859.86
2023-07-05T05:58:33.085Z,100862.54
2023-07-05T06:01:05.199Z,100859.37
2023-07-05T06:03:33.559Z,100855.29
2023-07-05T06:06:01.779Z,100854.39
2023-07-05T06:08:29.956Z,100855.27
2023-07-05T06:10:59.661Z,100859.78
2023-07-05T06:13:29.241Z,100862.33
2023-07-05T06:16:13.916Z,100866.13
2023-07-05T06:18:44.258Z,100866.69
2023-07-05T06:21:13.308Z,100869.90
2023-07-05T06:23:41.588Z,100875.64
2023-07-05T06:26:11.270Z,100876.90
2023-07-05T06:28:39.429Z,100877.59
2023-07-05T06:31:09.309Z,100876.57
2023-07-05T06:33:38.905Z,100881.27
2023-07-05T06:36:08.461Z,100888.38
2023-07-05T06:38:37.080Z,100887.30
2023-07-05T06:41:05.256Z,100883.16
2023-07-05T06:43:33.668Z,100879.35
2023-07-05T06:46:01.890Z,100880.66
2023-07-05T06:48:30.169Z,100882.67
2023-07-05T06:51:00.798Z,100886.34
2023-07-05T06:53:47.389Z,100893.32
2023-07-05T06:56:17.994Z,100893.91
2023-07-05T06:58:47.495Z,100889.98
2023-07-05T07:01:15.905Z,100887.85
2023-07-05T07:03:44.128Z,100887.86
2023-07-05T07:06:12.714Z,100884.38
2023-07-05T07:08:40.911Z,100886.35
2023-07-05T07:11:11.698Z,100883.56
2023-07-05T07:13:40.468Z,100886.06
2023-07-05T07:16:13.947Z,100886.63
2023-07-05T07:18:46.434Z,100879.79
2023-07-05T07:21:15.451Z,100877.48
2023-07-05T07:23:45.787Z,100880.06
2023-07-05T07:26:18.096Z,100878.26
2023-07-05T07:28:48.469Z,100886.08
2023-07-05T07:31:26.326Z,100886.27
2023-07-05T07:33:55.272Z,100879.57
2023-07-05T07:36:26.672Z,100874.66
2023-07-05T07:38:56.132Z,100871.45
2023-07-05T07:41:36.277Z,100871.32
2023-07-05T07:44:07.585Z,100874.44
2023-07-05T07:46:37.050Z,100877.23
2023-07-05T07:49:07.167Z,100878.78
2023-07-05T07:51:39.445Z,100877.33
2023-07-05T07:54:12.992Z,100877.25
2023-07-05T07:56:46.673Z,100878.21
2023-07-05T07:59:16.078Z,100878.99
2023-07-05T08:01:45.635Z,100880.80
2023-07-05T08:04:14.954Z,100885.97
2023-07-05T08:06:49.927Z,100884.82
2023-07-05T08:09:21.428Z,100879.82
2023-07-05T08:11:49.853Z,100878.67
2023-07-05T08:14:19.028Z,100876.58
2023-07-05T08:16:48.339Z,100872.14
2023-07-05T08:19:17.169Z,100874.15
2023-07-05T08:21:46.347Z,100874.91
2023-07-05T08:24:26.413Z,100871.28
2023-07-05T08:26:57.383Z,100868.37
2023-07-05T08:29:26.201Z,100871.70
2023-07-05T08:31:54.388Z,100874.55
2023-07-05T08:34:22.770Z,100876.17
2023-07-05T08:36:51.046Z,100874.33
2023-07-05T08:39:19.221Z,100876.69
2023-07-05T08:42:03.497Z,100873.63
2023-07-05T08:44:32.189Z,100865.93
2023-07-05T08:47:17.047Z,100859.89
2023-07-05T08:50:28.097Z,100864.63
2023-07-05T08:53:15.129Z,100858.05
2023-07-05T08:56:03.989Z,100859.07
2023-07-05T08:58:47.466Z,100853.58
2023-07-05T09:01:25.228Z,100851.66
2023-07-05T09:03:53.563Z,100849.83
2023-07-05T09:06:33.199Z,100849.52
2023-07-05T09:09:31.330Z,100851.30
2023-07-05T09:12:27.147Z,100848.64
2023-07-05T09:15:22.330Z,100847.66
2023-07-05T09:17:51.913Z,100850.85
2023-07-05T09:20:37.924Z,100850.02
2023-07-05T09:23:15.221Z,100850.36
2023-07-05T09:25:55.833Z,100844.94
2023-07-05T09:28:40.644Z,100847.13
2023-07-05T09:31:13.165Z,100841.85
2023-07-05T09:33:48.404Z,100838.65
2023-07-05T09:36:26.534Z,100842.56
2023-07-05T09:39:15.497Z,100839.96
2023-07-05T09:41:51.184Z,100841.73
2023-07-05T09:44:20.875Z,100836.77
2023-07-05T09:46:50.203Z,100834.92
2023-07-05T09:49:20.594Z,100832.48
2023-07-05T09:51:49.139Z,100823.55
2023-07-05T09:54:30.536Z,100815.39
2023-07-05T09:57:06.280Z,100808.61
2023-07-05T09:59:35.523Z,100806.15
2023-07-05T10:02:15.810Z,100804.52
2023-07-05T10:04:47.743Z,100804.27
2023-07-05T10:07:24.262Z,100804.94
2023-07-05T10:10:12.033Z,100802.48
2023-07-05T10:12:44.200Z,100801.58
2023-07-05T10:15:26.044Z,100797.38
2023-07-05T10:17:56.919Z,100795.41
2023-07-05T10:20:29.252Z,100794.94
2023-07-05T10:23:03.858Z,100795.09
2023-07-05T10:25:36.477Z,100790.73
2023-07-05T10:28:07.270Z,100784.23
2023-07-05T10:30:50.552Z,100787.72
2023-07-05T10:33:24.173Z,100785.47
2023-07-05T10:36:10.717Z,100779.74
2023-07-05T10:38:47.944Z,100783.45
2023-07-05T10:41:22.196Z,100780.22
2023-07-05T10:44:00.539Z,100782.63
2023-07-05T10:46:29.822Z,100776.90
2023-07-05T10:48:59.326Z,100775.08
2023-07-05T10:51:34.378Z,100767.79
2023-07-05T10:54:15.649Z,100765.88
2023-07-05T10:56:46.957Z,100759.38
2023-07-05T10:59:28.372Z,100761.92
2023-07-05T11:02:19.697Z,100757.87
2023-07-05T11:04:51.180Z,100757.42
2023-07-05T11:07:21.393Z,100757.05
2023-07-05T11:09:50.329Z,100754.85
2023-07-05T11:12:21.802Z,100752.77
2023-07-05T11:14:51.788Z,100749.52
2023-07-05T11:17:32.471Z,100741.09
2023-07-05T11:20:00.881Z,100738.88
2023-07-05T11:22:38.132Z,100735.16
2023-07-05T11:25:10.796Z,100730.23
2023-07-05T11:27:38.833Z,100727.39
2023-07-05T11:30:40.686Z,100721.11
2023-07-05T11:33:09.584Z,100715.66
2023-07-05T11:35:51.004Z,100717.20
2023-07-05T11:38:58.791Z,100717.39
2023-07-05T11:41:29.305Z,100714.07
2023-07-05T11:44:23.411Z,100712.77
2023-07-05T11:46:52.037Z,100709.80
2023-07-05T11:49:23.197Z,100708.63
2023-07-05T11:51:56.325Z,100708.28
2023-07-05T11:54:33.218Z,100704.80
2023-07-05T11:57:05.150Z,100697.29
2023-07-05T11:59:39.388Z,100691.23
2023-07-05T12:02:26.974Z,100692.35
2023-07-05T12:04:59.649Z,100685.65
2023-07-05T12:07:28.467Z,100680.41
2023-07-05T12:09:58.280Z,100678.69
2023-07-05T12:12:27.170Z,100674.91
2023-07-05T12:14:55.407Z,100669.75
2023-07-05T12:17:28.127Z,100664.78
2023-07-05T12:19:58.742Z,100666.94
2023-07-05T12:22:27.567Z,100664.75
2023-07-05T12:24:58.650Z,100661.35
2023-07-05T12:27:30.008Z,100659.61
2023-07-05T12:30:01.038Z,100657.41
2023-07-05T12:32:30.266Z,100645.27
2023-07-05T12:35:10.620Z,100639.74
2023-07-05T12:37:39.448Z,100636.92
2023-07-05T12:40:18.658Z,100636.92
2023-07-05T12:42:52.700Z,100639.14
2023-07-05T12:45:30.123Z,100637.13
2023-07-05T12:48:13.298Z,100628.53
2023-07-05T12:50:42.377Z,100622.46
2023-07-05T12:53:17.737Z,100619.03
2023-07-05T12:56:13.922Z,100614.23
2023-07-05T12:58:51.316Z,100610.73
2023-07-05T13:01:20.064Z,100603.21
2023-07-05T13:03:51.728Z,100602.54
2023-07-05T13:06:20.651Z,100597.70
2023-07-05T13:08:52.411Z,100591.42
2023-07-05T13:11:28.801Z,100589.91
2023-07-05T13:14:02.238Z,100587.52
2023-07-05T13:16:53.756Z,100582.61
2023-07-05T13:19:22.657Z,100582.25
2023-07-05T13:21:51.484Z,100573.77
2023-07-05T13:24:28.678Z,100573.52
2023-07-05T13:26:57.745Z,100568.84
2023-07-05T13:29:38.810Z,100563.34
2023-07-05T13:32:07.218Z,100555.19
2023-07-05T13:34:35.352Z,100550.62
2023-07-05T13:37:09.124Z,100547.13
2023-07-05T13:39:37.318Z,100547.39
2023-07-05T13:42:05.909Z,100547.83
2023-07-05T13:44:34.055Z,100550.73
2023-07-05T13:47:02.360Z,100550.22
2023-07-05T13:49:30.523Z,100551.58
2023-07-05T13:52:00.607Z,100546.45
2023-07-05T13:54:30.041Z,100540.88
2023-07-05T13:56:58.323Z,100534.59
2023-07-05T13:59:26.516Z,100529.10
2023-07-05T14:01:56.241Z,100522.13
2023-07-05T14:04:25.536Z,100512.39
2023-07-05T14:06:53.721Z,100511.54
2023-07-05T14:09:21.800Z,100517.27
2023-07-05T14:11:50.230Z,100505.70
2023-07-05T14:14:18.399Z,100500.59
2023-07-05T14:16:46.986Z,100498.79
2023-07-05T14:19:15.286Z,100501.59
2023-07-05T14:21:44.364Z,100493.61
2023-07-05T14:24:13.885Z,100491.95
2023-07-05T14:26:43.000Z,100489.72
2023-07-05T14:29:11.159Z,100486.41
2023-07-05T14:31:39.971Z,100481.24
2023-07-05T14:34:13.547Z,100477.55
2023-07-05T14:36:41.620Z,100474.45
2023-07-05T14:39:10.599Z,100473.14
2023-07-05T14:41:38.891Z,100469.81
2023-07-05T14:44:09.584Z,100466.14
2023-07-05T14:46:38.867Z,100462.60
2023-07-05T14:49:07.031Z,100460.27
2023-07-05T14:51:35.496Z,100460.79
2023-07-05T14:54:06.542Z,100454.42
2023-07-05T14:56:34.646Z,100446.70
2023-07-05T14:59:02.765Z,100441.81
2023-07-05T15:01:32.182Z,100438.52
2023-07-05T15:04:00.717Z,100434.69
2023-07-05T15:06:29.095Z,100431.14
2023-07-05T15:08:57.229Z,100425.41
2023-07-05T15:11:27.378Z,100422.43
2023-07-05T15:13:57.037Z,100418.55
2023-07-05T15:16:25.762Z,100418.26
2023-07-05T15:18:53.962Z,100419.34
2023-07-05T15:21:23.786Z,100414.16
2023-07-05T15:23:54.204Z,100409.55
2023-07-05T15:26:23.720Z,100408.23
2023-07-05T15:28:51.948Z,100409.53
2023-07-05T15:31:21.587Z,100405.23
2023-07-05T15:33:49.884Z,100403.83
2023-07-05T15:36:19.685Z,100406.73
2023-07-05T15:38:49.510Z,100411.23
2023-07-05T15:41:18.013Z,100406.61
2023-07-05T15:43:46.460Z,100408.79
2023-07-05T15:46:14.630Z,100399.96
2023-07-05T15:48:44.662Z,100397.02
2023-07-05T15:51:13.214Z,100391.64
2023-07-05T15:53:41.541Z,100391.91
2023-07-05T15:56:09.736Z,100386.86
2023-07-05T15:58:43.999Z,100383.24
2023-07-05T16:01:15.704Z,100383.41
2023-07-05T16:03:43.918Z,100385.27
2023-07-05T16:06:14.163Z,100391.77
2023-07-05T16:08:42.622Z,100389.02
2023-07-05T16:11:13.712Z,100391.04
2023-07-05T16:13:42.188Z,100391.73
2023-07-05T16:16:10.310Z,100390.75
2023-07-05T16:18:38.605Z,100393.77
2023-07-05T16:21:06.885Z,100408.91
2023-07-05T16:23:35.205Z,100435.12
2023-07-05T16:26:03.507Z,100441.47
2023-07-05T16:28:32.367Z,100444.77
2023-07-05T16:31:05.233Z,100447.81
2023-07-05T16:33:33.470Z,100454.02
2023-07-05T16:36:02.282Z,100458.83
2023-07-05T16:38:30.620Z,100483.98
2023-07-05T16:41:00.867Z,100501.83
2023-07-05T16:43:29.929Z,100514.27
2023-07-05T16:46:00.032Z,100513.66
2023-07-05T16:48:29.049Z,100519.60
2023-07-05T16:50:58.077Z,100523.52
2023-07-05T16:53:26.459Z,100520.05
2023-07-05T16:56:01.571Z,100520.94
2023-07-05T16:58:30.128Z,100503.17
2023-07-05T17:01:08.124Z,100486.17
2023-07-05T17:03:40.453Z,100449.80
2023-07-05T17:06:10.836Z,100421.98
2023-07-05T17:08:40.517Z,100405.33
2023-07-05T17:11:11.272Z,100399.39
2023-07-05T17:13:39.550Z,100396.70
2023-07-05T17:16:07.918Z,100393.59
2023-07-05T17:18:36.428Z,100394.66
2023-07-05T17:21:07.671Z,100394.95
2023-07-05T17:23:36.118Z,100404.42
2023-07-05T17:26:10.685Z,100425.16
2023-07-05T17:28:43.142Z,100445.41
2023-07-05T17:31:16.217Z,100501.36
2023-07-05T17:33:45.315Z,100563.80
2023-07-05T17:36:16.034Z,100532.39
2023-07-05T17:38:44.816Z,100523.48
2023-07-05T17:41:14.470Z,100522.58
2023-07-05T17:43:43.274Z,100520.60
2023-07-05T17:46:20.402Z,100528.89
2023-07-05T17:48:50.618Z,100540.13
2023-07-05T17:51:20.029Z,100529.78
2023-07-05T17:53:48.874Z,100522.62
2023-07-05T17:56:19.489Z,100528.33
2023-07-05T17:58:48.728Z,100527.23
2023-07-05T18:01:19.817Z,100526.73
2023-07-05T18:03:48.656Z,100527.67
2023-07-05T18:06:17.386Z,100513.75
2023-07-05T18:08:46.692Z,100517.16
2023-07-05T18:11:14.839Z,100512.33
2023-07-05T18:13:43.434Z,100517.44
2023-07-05T18:16:15.037Z,100531.67
2023-07-05T18:18:43.922Z,100538.13
2023-07-05T18:21:15.608Z,100547.83
2023-07-05T18:23:48.647Z,100556.57
2023-07-05T18:26:18.581Z,100557.23
2023-07-05T18:28:52.905Z,100550.25
2023-07-05T18:31:22.607Z,100546.71
2023-07-05T18:33:51.887Z,100545.41
2023-07-05T18:36:23.036Z,100548.45
2023-07-05T18:38:52.941Z,100546.73
2023-07-05T18:41:22.816Z,100543.16
2023-07-05T18:43:51.314Z,100533.85
2023-07-05T18:46:19.591Z,100523.55
2023-07-05T18:48:48.314Z,100516.69
2023-07-05T18:51:16.521Z,100508.22
2023-07-05T18:53:44.659Z,100503.59
2023-07-05T18:56:19.041Z,100496.73
2023-07-05T18:58:47.833Z,100493.83
2023-07-05T19:01:20.757Z,100489.60
2023-07-05T19:03:50.656Z,100483.20
2023-07-05T19:06:21.774Z,100479.52
2023-07-05T19:08:50.793Z,100481.73
2023-07-05T19:11:24.953Z,100478.98
2023-07-05T19:13:54.200Z,100471.95
2023-07-05T19:16:25.359Z,100470.63
2023-07-05T19:18:54.199Z,100472.85
2023-07-05T19:21:22.302Z,100484.77
2023-07-05T19:23:51.445Z,100497.79
2023-07-05T19:26:21.081Z,100492.81
2023-07-05T19:28:53.112Z,100485.07
2023-07-05T19:31:27.327Z,100493.77
2023-07-05T19:33:56.108Z,100496.98
2023-07-05T19:36:26.436Z,100501.73
2023-07-05T19:38:56.572Z,100495.55
2023-07-05T19:41:25.369Z,100482.69
2023-07-05T19:43:53.514Z,100472.64
2023-07-05T19:46:26.358Z,100480.27
2023-07-05T19:49:01.480Z,100483.27
2023-07-05T19:51:30.925Z,100482.67
2023-07-05T19:53:59.102Z,100489.13
2023-07-05T19:56:28.810Z,100490.23
2023-07-05T19:58:59.311Z,100484.00
2023-07-05T20:01:28.560Z,100488.48
2023-07-05T20:03:56.710Z,100496.84
2023-07-05T20:06:24.903Z,100499.02
2023-07-05T20:08:54.053Z,100501.95
2023-07-05T20:11:23.477Z,100506.45
2023-07-05T20:13:52.223Z,100509.23
2023-07-05T20:16:21.650Z,100515.38
2023-07-05T20:18:50.310Z,100513.87
2023-07-05T20:21:20.254Z,100520.31
2023-07-05T20:23:49.118Z,100529.30
2023-07-05T20:26:18.120Z,100530.42
2023-07-05T20:28:47.534Z,100535.36
2023-07-05T20:31:16.578Z,100542.57
2023-07-05T20:33:44.971Z,100545.27
2023-07-05T20:36:15.965Z,100545.30
2023-07-05T20:38:44.600Z,100547.92
2023-07-05T20:41:12.739Z,100549.58
2023-07-05T20:43:41.324Z,100551.16
2023-07-05T20:46:09.602Z,100556.61
2023-07-05T20:48:37.948Z,100560.80
2023-07-05T20:51:11.965Z,100570.93
2023-07-05T20:53:40.606Z,100577.36
2023-07-05T20:56:10.371Z,100587.57
2023-07-05T20:58:39.007Z,100588.02
2023-07-05T21:01:14.725Z,100589.96
2023-07-05T21:03:43.015Z,100597.34
2023-07-05T21:06:11.375Z,100603.61
2023-07-05T21:08:40.153Z,100606.39
2023-07-05T21:11:10.817Z,100610.80
2023-07-05T21:13:42.223Z,100606.14
2023-07-05T21:16:12.640Z,100605.80
2023-07-05T21:18:41.120Z,100606.98
2023-07-05T21:21:10.690Z,100607.73
2023-07-05T21:23:39.262Z,100612.48
2023-07-05T21:26:09.081Z,100611.77
2023-07-05T21:28:37.884Z,100612.61
2023-07-05T21:31:07.384Z,100614.48
2023-07-05T21:33:36.371Z,100612.86
2023-07-05T21:36:04.999Z,100619.16
2023-07-05T21:38:33.163Z,100624.78
2023-07-05T21:41:01.643Z,100625.11
2023-07-05T21:43:30.604Z,100625.76
2023-07-05T21:45:59.238Z,100627.16
2023-07-05T21:48:30.086Z,100625.01
2023-07-05T21:50:59.742Z,100626.52
2023-07-05T21:53:28.485Z,100631.74
2023-07-05T21:55:58.429Z,100632.05
2023-07-05T21:58:29.970Z,100635.96
2023-07-05T22:01:00.130Z,100639.65
2023-07-05T22:03:29.094Z,100638.45
2023-07-05T22:05:58.947Z,100640.34
2023-07-05T22:08:27.638Z,100646.23
2023-07-05T22:10:56.590Z,100652.55
2023-07-05T22:13:26.253Z,100656.92
2023-07-05T22:15:55.366Z,100660.52
2023-07-05T22:18:23.837Z,100662.52
2023-07-05T22:20:52.033Z,100666.86
2023-07-05T22:23:22.466Z,100670.09
2023-07-05T22:25:50.618Z,100670.47
2023-07-05T22:28:18.712Z,100670.67
2023-07-05T22:30:48.755Z,100667.41
2023-07-05T22:33:17.025Z,100663.86
2023-07-05T22:35:46.292Z,100661.38
2023-07-05T22:38:14.557Z,100661.96
2023-07-05T22:40:45.053Z,100660.61
2023-07-05T22:43:13.157Z,100660.39
2023-07-05T22:45:41.386Z,100663.00
2023-07-05T22:48:09.459Z,100669.52
2023-07-05T22:50:37.886Z,100666.95
2023-07-05T22:53:06.001Z,100665.83
2023-07-05T22:55:34.235Z,100667.71
2023-07-05T22:58:02.745Z,100666.90
2023-07-05T23:00:31.501Z,100664.87
2023-07-05T23:03:00.179Z,100663.51
2023-07-05T23:05:29.902Z,100664.55
2023-07-05T23:08:00.340Z,100667.48
2023-07-05T23:10:28.508Z,100666.33
2023-07-05T23:12:57.482Z,100669.11
2023-07-05T23:15:26.420Z,100672.69
2023-07-05T23:17:54.638Z,100679.05
2023-07-05T23:20:24.365Z,100686.86
2023-07-05T23:22:52.984Z,100682.90
2023-07-05T23:25:21.103Z,100680.02
2023-07-05T23:27:51.215Z,100680.30
2023-07-05T23:30:19.822Z,100685.14
2023-07-05T23:32:49.934Z,100692.29
2023-07-05T23:35:18.310Z,100692.52
2023-07-05T23:37:46.415Z,100694.09
2023-07-05T23:40:14.600Z,100697.38
2023-07-05T23:42:42.687Z,100697.35
2023-07-05T23:45:12.658Z,100697.81
2023-07-05T23:47:41.453Z,100702.38
2023-07-05T23:50:11.158Z,100705.14
2023-07-05T23:52:41.283Z,100701.21
2023-07-05T23:55:10.756Z,100711.67
2023-07-05T23:57:39.460Z,100718.47
